Time;durP1;ratioP1;P1;durP2;ratioP2;P2;SDS_P1;SDS_P2;PMS_P1;PMS_P2;Temp;Humidity;BMP_temperature;BMP_pressure;BME280_temperature;BME280_humidity;BME280_pressure;Samples;Min_cycle;Max_cycle;Signal;HPM_P1;HPM_P2
2023/05/15 00:00:48;;;;;;;21.42;19.63;;;;;;;12.13;100.00;101441.06;4989918;28;20033;-63
2023/05/15 00:03:13;;;;;;;21.85;20.05;;;;;;;12.02;100.00;101444.56;4989560;28;20504;-63
2023/05/15 00:05:39;;;;;;;22.73;20.65;;;;;;;11.98;100.00;101445.25;4989955;28;20050;-63
2023/05/15 00:08:04;;;;;;;22.02;19.92;;;;;;;11.95;100.00;101443.78;4987802;28;20030;-63
2023/05/15 00:10:29;;;;;;;22.08;20.17;;;;;;;11.95;100.00;101443.78;4988248;28;20031;-63
2023/05/15 00:12:55;;;;;;;23.60;21.48;;;;;;;11.89;100.00;101441.94;4988101;28;20030;-63
2023/05/15 00:15:20;;;;;;;22.38;20.48;;;;;;;11.90;100.00;101429.84;4987779;28;20493;-63
2023/05/15 00:17:45;;;;;;;21.60;19.73;;;;;;;11.90;100.00;101429.84;4988523;28;20571;-63
2023/05/15 00:20:11;;;;;;;23.50;21.35;;;;;;;11.85;100.00;101432.44;4988106;28;20030;-63
2023/05/15 00:22:36;;;;;;;22.60;20.60;;;;;;;11.85;100.00;101426.94;4985954;28;20517;-63
2023/05/15 00:25:02;;;;;;;23.67;21.67;;;;;;;11.80;100.00;101430.31;4988058;28;20022;-62
2023/05/15 00:27:27;;;;;;;22.90;20.90;;;;;;;11.78;100.00;101432.47;4989049;28;20062;-63
2023/05/15 00:29:52;;;;;;;23.42;21.40;;;;;;;11.72;100.00;101427.03;4988389;28;20065;-64
2023/05/15 00:32:18;;;;;;;23.23;21.13;;;;;;;11.65;100.00;101424.31;4988742;28;20034;-63
2023/05/15 00:34:43;;;;;;;22.45;20.45;;;;;;;11.65;100.00;101435.31;4988208;28;20084;-63
2023/05/15 00:37:08;;;;;;;24.00;21.90;;;;;;;11.58;100.00;101426.28;4988386;28;20501;-62
2023/05/15 00:39:35;;;;;;;24.35;22.10;;;;;;;11.54;100.00;101423.13;4986420;28;20062;-64
2023/05/15 00:42:01;;;;;;;23.42;21.42;;;;;;;11.53;100.00;101431.59;4988884;28;20386;-63
2023/05/15 00:44:28;;;;;;;23.77;21.73;;;;;;;11.48;100.00;101426.78;4987557;28;20030;-64
2023/05/15 00:46:56;;;;;;;24.30;22.15;;;;;;;11.49;100.00;101422.94;4987714;28;20047;-62
2023/05/15 00:49:22;;;;;;;25.02;22.70;;;;;;;11.47;100.00;101424.25;4989057;28;20094;-64
2023/05/15 00:51:48;;;;;;;24.42;22.23;;;;;;;11.38;100.00;101415.41;4987155;28;20133;-63
2023/05/15 00:54:14;;;;;;;24.88;22.70;;;;;;;11.36;100.00;101423.91;4987842;28;20030;-64
2023/05/15 00:56:42;;;;;;;24.67;22.50;;;;;;;11.34;100.00;101430.66;4988481;28;20057;-64
2023/05/15 00:59:09;;;;;;;24.85;22.55;;;;;;;11.32;100.00;101414.41;4987894;28;20511;-64
2023/05/15 01:01:35;;;;;;;25.10;22.90;;;;;;;11.28;100.00;101418.66;4987295;28;20038;-64
2023/05/15 01:04:01;;;;;;;26.52;24.13;;;;;;;11.21;100.00;101406.03;4987022;28;20293;-62
2023/05/15 01:06:27;;;;;;;24.98;22.83;;;;;;;11.14;100.00;101401.38;4987541;28;20034;-63
2023/05/15 01:08:55;;;;;;;26.15;23.63;;;;;;;11.13;100.00;101407.97;4986985;28;20030;-63
2023/05/15 01:11:24;;;;;;;25.80;23.50;;;;;;;11.07;100.00;101408.84;4986704;28;20470;-64
2023/05/15 01:13:49;;;;;;;27.42;24.90;;;;;;;11.08;100.00;101412.44;4986871;28;20113;-62
2023/05/15 01:16:15;;;;;;;27.20;24.50;;;;;;;11.05;100.00;101410.97;4988406;28;20105;-63
2023/05/15 01:18:40;;;;;;;24.85;22.65;;;;;;;11.13;100.00;101398.88;4987084;28;20018;-62
2023/05/15 01:21:15;;;;;;;26.30;23.98;;;;;;;11.08;100.00;101407.78;4987211;28;20034;-63
2023/05/15 01:24:11;;;;;;;26.73;24.30;;;;;;;11.08;100.00;101415.19;4987555;28;20030;-64
2023/05/15 01:27:06;;;;;;;25.58;23.27;;;;;;;11.11;100.00;101409.25;4957001;28;20125;-64
2023/05/15 01:29:36;;;;;;;25.85;23.55;;;;;;;11.04;100.00;101402.94;4986336;28;20088;-62
2023/05/15 01:32:17;;;;;;;26.02;23.73;;;;;;;10.96;100.00;101403.22;4987720;28;20524;-64
2023/05/15 01:34:47;;;;;;;26.92;24.50;;;;;;;10.93;100.00;101393.47;4984816;28;21868;-63
2023/05/15 01:37:17;;;;;;;26.40;24.10;;;;;;;10.88;100.00;101396.88;4986284;28;20633;-64
2023/05/15 01:39:44;;;;;;;25.70;23.50;;;;;;;10.82;100.00;101396.94;4987052;28;20066;-64
2023/05/15 01:42:14;;;;;;;24.85;22.65;;;;;;;10.77;100.00;101391.25;4986458;28;20034;-63
2023/05/15 01:44:45;;;;;;;25.83;23.42;;;;;;;10.77;100.00;101400.34;4986536;28;20084;-64
2023/05/15 01:47:18;;;;;;;25.38;23.08;;;;;;;10.74;100.00;101400.75;4987403;28;20421;-64
2023/05/15 01:49:45;;;;;;;26.55;24.15;;;;;;;10.67;100.00;101396.38;4987165;28;20393;-63
2023/05/15 01:52:28;;;;;;;26.17;23.77;;;;;;;10.68;100.00;101392.56;4986410;28;20105;-63
2023/05/15 01:54:53;;;;;;;26.52;24.05;;;;;;;10.62;100.00;101391.53;4986424;28;20038;-62
2023/05/15 01:57:20;;;;;;;27.13;24.75;;;;;;;10.59;100.00;101386.44;4987215;28;20029;-62
2023/05/15 01:59:46;;;;;;;25.98;23.65;;;;;;;10.60;100.00;101385.41;4984488;28;20692;-63
2023/05/15 02:02:12;;;;;;;26.00;23.70;;;;;;;10.56;100.00;101384.16;4986823;28;20073;-63
2023/05/15 02:04:39;;;;;;;26.42;24.08;;;;;;;10.52;100.00;101388.41;4987547;28;20037;-63
2023/05/15 02:07:06;;;;;;;26.30;23.95;;;;;;;10.48;100.00;101376.16;4985555;28;20465;-63
2023/05/15 02:09:32;;;;;;;26.75;24.35;;;;;;;10.48;100.00;101387.13;4986685;28;20073;-62
2023/05/15 02:12:00;;;;;;;27.30;24.77;;;;;;;10.46;100.00;101378.28;4984202;28;20042;-63
2023/05/15 02:14:27;;;;;;;26.35;24.05;;;;;;;10.46;100.00;101373.63;4986944;28;20064;-63
2023/05/15 02:16:53;;;;;;;28.50;25.90;;;;;;;10.49;100.00;101378.69;4986065;28;20030;-63
2023/05/15 02:19:18;;;;;;;27.55;25.05;;;;;;;10.48;100.00;101378.91;4988241;28;20048;-63
2023/05/15 02:21:43;;;;;;;27.00;24.70;;;;;;;10.48;100.00;101373.41;4985782;28;20058;-62
2023/05/15 02:24:08;;;;;;;26.83;24.45;;;;;;;10.44;100.00;101380.38;4986387;28;20136;-63
2023/05/15 02:26:36;;;;;;;26.98;24.48;;;;;;;10.44;100.00;101380.38;4987095;28;20041;-62
2023/05/15 02:29:47;;;;;;;26.67;24.25;;;;;;;10.43;100.00;101382.28;4984580;28;20409;-63
2023/05/15 02:32:24;;;;;;;27.50;24.80;;;;;;;10.44;100.00;101385.88;4986016;28;20041;-62
2023/05/15 02:35:20;;;;;;;27.52;25.23;;;;;;;10.41;100.00;101386.34;4986739;28;20506;-61
2023/05/15 02:37:52;;;;;;;28.80;26.20;;;;;;;10.37;100.00;101394.16;5044152;22;20061;-63
2023/05/15 02:40:19;;;;;;;28.13;25.35;;;;;;;10.33;100.00;101395.63;5019563;28;20027;-63
2023/05/15 02:42:46;;;;;;;30.27;27.40;;;;;;;10.29;100.00;101395.25;5023322;28;20029;-62
2023/05/15 02:45:12;;;;;;;29.33;26.63;;;;;;;10.26;100.00;101384.69;5017858;28;20034;-63
2023/05/15 02:47:39;;;;;;;29.45;26.75;;;;;;;10.23;100.00;101390.56;5018814;28;20388;-63
2023/05/15 02:50:06;;;;;;;30.45;27.65;;;;;;;10.22;100.00;101393.53;5023149;28;20030;-63
2023/05/15 02:52:33;;;;;;;31.30;28.33;;;;;;;10.18;100.00;101395.00;5018567;28;20025;-63
2023/05/15 02:54:58;;;;;;;29.92;27.25;;;;;;;10.17;100.00;101396.91;5024515;28;20065;-63
2023/05/15 02:57:24;;;;;;;31.10;28.30;;;;;;;10.17;100.00;101398.81;5013413;28;20115;-63
2023/05/15 02:59:49;;;;;;;32.20;29.20;;;;;;;10.12;100.00;101389.31;5017881;28;20026;-62
2023/05/15 03:02:14;;;;;;;32.63;29.52;;;;;;;10.10;100.00;101390.59;5008712;28;20485;-63
2023/05/15 03:04:40;;;;;;;32.95;29.85;;;;;;;10.08;100.00;101385.31;5028896;28;20100;-63
2023/05/15 03:07:05;;;;;;;33.05;30.00;;;;;;;10.04;100.00;101385.97;5016853;28;20176;-63
2023/05/15 03:09:30;;;;;;;33.25;30.15;;;;;;;10.01;100.00;101379.00;5010860;28;20036;-63
2023/05/15 03:11:56;;;;;;;33.65;30.50;;;;;;;9.99;100.00;101383.88;5018853;28;20025;-62
2023/05/15 03:14:21;;;;;;;32.75;29.75;;;;;;;9.97;100.00;101382.38;5026397;28;20383;-63
2023/05/15 03:16:46;;;;;;;34.20;30.90;;;;;;;9.93;100.00;101379.22;5024333;28;20033;-63
2023/05/15 03:19:11;;;;;;;34.50;31.30;;;;;;;9.92;100.00;101379.44;5028201;28;20033;-63
2023/05/15 03:21:37;;;;;;;33.38;30.17;;;;;;;9.88;100.00;101377.13;5021137;28;20041;-62
2023/05/15 03:24:02;;;;;;;32.60;29.55;;;;;;;9.88;100.00;101376.25;5008613;28;20021;-62
2023/05/15 03:26:27;;;;;;;32.72;29.70;;;;;;;9.92;100.00;101376.69;5024636;28;20030;-63
2023/05/15 03:28:53;;;;;;;33.75;30.67;;;;;;;9.91;100.00;101381.34;5028170;28;20403;-63
2023/05/15 03:31:18;;;;;;;33.05;30.00;;;;;;;9.92;100.00;101383.03;5023472;28;20029;-62
2023/05/15 03:33:45;;;;;;;34.45;31.25;;;;;;;9.85;100.00;101380.31;5025017;28;20037;-63
2023/05/15 03:36:11;;;;;;;32.33;29.33;;;;;;;9.86;100.00;101381.13;5020510;28;20030;-62
2023/05/15 03:38:36;;;;;;;34.10;30.92;;;;;;;9.80;100.00;101371.03;5011568;28;20042;-63
2023/05/15 03:41:02;;;;;;;34.13;30.85;;;;;;;9.78;100.00;101375.84;5026139;28;20041;-63
2023/05/15 03:43:27;;;;;;;34.10;30.95;;;;;;;9.73;100.00;101371.03;5028956;28;20789;-62
2023/05/15 03:45:52;;;;;;;34.28;31.00;;;;;;;9.73;100.00;101367.41;5026547;28;20044;-62
2023/05/15 03:48:18;;;;;;;34.42;31.08;;;;;;;9.71;100.00;101367.66;5023566;28;20404;-64
2023/05/15 03:50:44;;;;;;;33.60;30.35;;;;;;;9.65;100.00;101368.50;5029508;28;20030;-63
2023/05/15 03:53:09;;;;;;;35.25;31.95;;;;;;;9.64;100.00;101366.81;5026403;28;20455;-63
2023/05/15 03:55:35;;;;;;;32.95;29.88;;;;;;;9.61;100.00;101364.50;5029246;28;20032;-63
2023/05/15 03:58:00;;;;;;;34.35;31.05;;;;;;;9.60;100.00;101365.56;5021597;28;20037;-63
2023/05/15 04:00:26;;;;;;;33.72;30.52;;;;;;;9.62;100.00;101360.69;5022567;28;20027;-63
2023/05/15 04:02:51;;;;;;;34.70;31.38;;;;;;;9.56;100.00;101362.38;5014547;28;20730;-63
2023/05/15 04:05:18;;;;;;;33.55;30.30;;;;;;;9.56;100.00;101356.06;5009950;28;20037;-63
2023/05/15 04:07:43;;;;;;;34.40;30.98;;;;;;;9.51;100.00;101359.44;5007134;28;20076;-62
2023/05/15 04:10:09;;;;;;;35.38;31.83;;;;;;;9.54;100.00;101356.28;5028203;28;20563;-63
2023/05/15 04:12:35;;;;;;;34.15;30.90;;;;;;;9.53;100.00;101354.59;5017164;28;20563;-63
2023/05/15 04:15:22;;;;;;;35.28;31.67;;;;;;;9.53;100.00;101370.16;5027789;28;20443;-63
2023/05/15 04:17:50;;;;;;;35.58;32.17;;;;;;;9.51;100.00;101362.16;5021619;28;20025;-63
2023/05/15 04:20:18;;;;;;;34.60;31.17;;;;;;;9.53;100.00;101360.06;5009546;28;20022;-62
2023/05/15 04:22:44;;;;;;;35.95;32.38;;;;;;;9.57;100.00;101360.47;5008398;28;20026;-62
2023/05/15 04:25:10;;;;;;;35.55;31.85;;;;;;;9.61;100.00;101367.22;5007035;28;20105;-63
2023/05/15 04:27:37;;;;;;;34.15;30.85;;;;;;;9.69;100.00;101371.66;5006570;28;20060;-63
2023/05/15 04:30:04;;;;;;;34.13;30.77;;;;;;;9.69;100.00;101366.19;5026208;28;20116;-63
2023/05/15 04:32:30;;;;;;;34.25;30.85;;;;;;;9.73;100.00;101365.56;5016298;28;20029;-62
2023/05/15 04:34:55;;;;;;;35.22;31.70;;;;;;;9.81;100.00;101373.53;5024218;28;20324;-63
2023/05/15 04:37:20;;;;;;;35.00;31.60;;;;;;;9.80;100.00;101374.59;5022976;28;20053;-63
2023/05/15 04:39:46;;;;;;;34.15;30.60;;;;;;;9.83;100.00;101381.56;5028977;28;20032;-62
2023/05/15 04:42:11;;;;;;;34.85;31.30;;;;;;;9.82;100.00;101377.13;5026334;28;20045;-63
2023/05/15 04:44:36;;;;;;;33.55;30.33;;;;;;;9.86;100.00;101381.13;5025479;28;20041;-63
2023/05/15 04:47:02;;;;;;;35.47;31.90;;;;;;;9.80;100.00;101385.59;5020326;28;20030;-63
2023/05/15 04:49:27;;;;;;;34.97;31.55;;;;;;;9.77;100.00;101391.47;5026905;28;20038;-63
2023/05/15 04:51:52;;;;;;;33.42;30.13;;;;;;;9.76;100.00;101388.97;5027798;28;20032;-61
2023/05/15 04:54:17;;;;;;;33.00;29.80;;;;;;;9.75;100.00;101388.13;5025285;28;20033;-63
2023/05/15 04:56:44;;;;;;;32.65;29.55;;;;;;;9.73;100.00;101390.25;5014848;28;20041;-62
2023/05/15 04:59:10;;;;;;;33.00;29.90;;;;;;;9.74;100.00;101396.56;5007373;28;20573;-62
2023/05/15 05:01:36;;;;;;;30.83;27.80;;;;;;;9.79;100.00;101392.13;5008227;28;20124;-65
2023/05/15 05:04:01;;;;;;;31.27;28.17;;;;;;;9.87;100.00;101393.78;5012963;28;20037;-63
2023/05/15 05:06:27;;;;;;;32.45;29.33;;;;;;;9.91;100.00;101396.97;5016059;28;20160;-63
2023/05/15 05:08:52;;;;;;;31.85;28.65;;;;;;;9.96;100.00;101388.94;5027920;28;20028;-63
2023/05/15 05:11:17;;;;;;;30.70;27.75;;;;;;;10.02;100.00;101394.41;5025343;28;20040;-63
2023/05/15 05:13:42;;;;;;;29.95;27.05;;;;;;;10.04;100.00;101396.97;5005245;28;20439;-63
2023/05/15 05:16:08;;;;;;;29.58;26.70;;;;;;;10.07;100.00;101402.84;5010210;28;20934;-62
2023/05/15 05:18:33;;;;;;;28.60;25.85;;;;;;;10.08;100.00;101403.69;5017947;28;20033;-63
2023/05/15 05:21:02;;;;;;;28.13;25.52;;;;;;;10.17;100.00;101405.16;5010593;28;20026;-63
2023/05/15 05:23:29;;;;;;;28.50;25.88;;;;;;;10.27;100.00;101413.81;5017194;28;20036;-63
2023/05/15 05:25:54;;;;;;;29.25;26.58;;;;;;;10.35;100.00;101410.84;5021787;28;20048;-63
2023/05/15 05:28:19;;;;;;;30.20;27.27;;;;;;;10.46;100.00;101411.25;4988497;28;20022;-62
2023/05/15 05:30:46;;;;;;;29.13;26.42;;;;;;;10.50;100.00;101415.25;5009723;28;20034;-63
2023/05/15 05:33:11;;;;;;;28.33;25.65;;;;;;;10.57;100.00;101416.91;5006441;28;20466;-62
2023/05/15 05:35:36;;;;;;;28.00;25.42;;;;;;;10.60;100.00;101412.88;5006434;28;20232;-63
2023/05/15 05:38:02;;;;;;;29.17;26.48;;;;;;;10.52;100.00;101421.34;5012569;28;20041;-63
2023/05/15 05:40:27;;;;;;;28.42;25.65;;;;;;;10.52;100.00;101427.69;5008959;28;20030;-63
2023/05/15 05:42:53;;;;;;;28.20;25.63;;;;;;;10.53;100.00;101421.13;5018955;28;20037;-62
2023/05/15 05:45:18;;;;;;;27.73;25.05;;;;;;;10.56;100.00;101428.09;5005143;28;20109;-63
2023/05/15 05:47:43;;;;;;;27.80;25.05;;;;;;;10.62;100.00;101421.75;4995280;28;20111;-62
2023/05/15 05:50:09;;;;;;;26.17;23.77;;;;;;;10.65;100.00;101432.31;5015180;28;20052;-62
2023/05/15 05:52:34;;;;;;;27.08;24.58;;;;;;;10.63;100.00;101424.25;5006243;28;20109;-62
2023/05/15 05:55:00;;;;;;;27.52;24.92;;;;;;;10.65;100.00;101429.56;5014660;28;20040;-62
2023/05/15 05:57:25;;;;;;;27.08;24.58;;;;;;;10.70;100.00;101428.91;5008633;28;20085;-62
2023/05/15 05:59:50;;;;;;;25.98;23.55;;;;;;;10.65;100.00;101421.31;4999320;28;20117;-63
2023/05/15 06:02:16;;;;;;;25.88;23.35;;;;;;;10.67;100.00;101424.69;5001392;28;20109;-62
2023/05/15 06:04:41;;;;;;;26.90;24.33;;;;;;;10.68;100.00;101426.34;4999533;28;20122;-61
2023/05/15 06:07:07;;;;;;;26.20;23.63;;;;;;;10.73;100.00;101422.97;5008132;28;20033;-62
2023/05/15 06:09:32;;;;;;;24.95;22.48;;;;;;;10.77;100.00;101425.06;5004552;28;20057;-63
2023/05/15 06:11:59;;;;;;;24.13;21.73;;;;;;;10.68;100.00;101428.25;5001952;28;20522;-62
2023/05/15 06:14:25;;;;;;;26.35;23.77;;;;;;;10.56;100.00;101428.94;5005967;28;20025;-63
2023/05/15 06:16:51;;;;;;;25.85;23.50;;;;;;;10.54;100.00;101439.31;5006935;28;20499;-63
2023/05/15 06:19:16;;;;;;;25.13;22.90;;;;;;;10.52;100.00;101435.09;5002282;28;20038;-63
2023/05/15 06:21:42;;;;;;;26.10;23.70;;;;;;;10.51;100.00;101431.50;4989431;28;20031;-64
2023/05/15 06:24:07;;;;;;;26.40;23.95;;;;;;;10.54;100.00;101430.22;5009807;28;20022;-62
2023/05/15 06:26:32;;;;;;;25.67;23.23;;;;;;;10.60;100.00;101432.13;5003819;28;20052;-63
2023/05/15 06:28:58;;;;;;;27.05;24.50;;;;;;;10.64;100.00;101433.34;5005781;28;20034;-63
2023/05/15 06:31:23;;;;;;;27.35;24.75;;;;;;;10.68;100.00;101437.34;5006582;28;20030;-63
2023/05/15 06:33:48;;;;;;;28.08;25.55;;;;;;;10.79;100.00;101433.91;5007667;28;20026;-63
2023/05/15 06:36:14;;;;;;;29.13;26.30;;;;;;;10.87;100.00;101433.69;5006178;28;20038;-63
2023/05/15 06:38:39;;;;;;;27.33;24.77;;;;;;;10.96;100.00;101428.78;5008057;28;20050;-63
2023/05/15 06:41:04;;;;;;;26.67;24.17;;;;;;;11.07;100.00;101430.00;5010276;28;20435;-62
2023/05/15 06:43:29;;;;;;;27.55;24.95;;;;;;;11.20;100.00;101429.06;5010466;28;20026;-63
2023/05/15 06:45:55;;;;;;;26.95;24.58;;;;;;;11.34;100.00;101426.00;5010517;28;20113;-62
2023/05/15 06:48:20;;;;;;;27.13;24.63;;;;;;;11.48;100.00;101426.78;5010140;28;20030;-62
2023/05/15 06:50:45;;;;;;;25.63;23.23;;;;;;;11.55;100.00;101426.72;4993492;28;20034;-63
2023/05/15 06:53:10;;;;;;;25.05;22.83;;;;;;;11.67;100.00;101423.03;4989537;28;20426;-62
2023/05/15 06:55:36;;;;;;;22.70;20.70;;;;;;;11.65;100.00;101425.16;4990160;28;20041;-61
2023/05/15 06:58:03;;;;;;;23.48;21.40;;;;;;;11.53;100.00;101420.59;4989587;28;20072;-62
2023/05/15 07:00:28;;;;;;;24.13;22.02;;;;;;;11.54;100.00;101425.03;5009751;28;20045;-61
2023/05/15 07:02:53;;;;;;;24.27;22.15;;;;;;;11.57;100.00;101422.69;5008110;28;20061;-62
2023/05/15 07:05:20;;;;;;;23.75;21.58;;;;;;;11.64;100.00;101420.72;5024884;28;20045;-62
2023/05/15 07:07:45;;;;;;;23.13;21.05;;;;;;;11.85;100.00;101425.00;5005323;28;20029;-62
2023/05/15 07:10:11;;;;;;;22.90;20.90;;;;;;;11.95;100.00;101414.34;5010373;28;20029;-62
2023/05/15 07:12:36;;;;;;;23.60;21.40;;;;;;;12.07;100.00;101419.13;5007925;28;20033;-63
2023/05/15 07:15:01;;;;;;;21.98;20.10;;;;;;;12.19;100.00;101425.56;5010086;28;20176;-63
2023/05/15 07:17:27;;;;;;;22.50;20.50;;;;;;;12.30;100.00;101418.44;5009916;28;20033;-63
2023/05/15 07:19:52;;;;;;;21.35;19.52;;;;;;;12.37;100.00;101417.31;5010415;28;20022;-62
2023/05/15 07:22:17;;;;;;;20.83;19.02;;;;;;;12.49;100.00;101424.81;5009412;28;20026;-62
2023/05/15 07:24:43;;;;;;;20.53;18.50;;;;;;;12.59;98.00;101430.63;4994263;28;20030;-63
2023/05/15 07:27:08;;;;;;;23.00;21.00;;;;;;;12.73;99.07;101433.00;5007197;28;20281;-62
2023/05/15 07:29:33;;;;;;;23.73;21.63;;;;;;;12.87;99.61;101424.56;5010434;28;20014;-62
2023/05/15 07:31:58;;;;;;;24.92;22.92;;;;;;;12.99;98.40;101419.97;5006382;28;20376;-63
2023/05/15 07:34:24;;;;;;;23.45;21.35;;;;;;;13.11;95.34;101414.47;5009826;28;20088;-63
2023/05/15 07:36:49;;;;;;;25.20;23.00;;;;;;;13.13;97.38;101417.88;5009018;28;20052;-62
2023/05/15 07:39:14;;;;;;;23.95;21.95;;;;;;;13.14;94.73;101414.88;5009184;28;20026;-62
2023/05/15 07:41:40;;;;;;;23.55;21.55;;;;;;;13.34;95.04;101409.09;4998016;28;20125;-62
2023/05/15 07:44:05;;;;;;;23.92;21.73;;;;;;;13.76;96.20;101409.88;5008153;28;20033;-63
2023/05/15 07:46:32;;;;;;;24.48;22.38;;;;;;;13.96;91.27;101417.00;5009114;28;20062;-61
2023/05/15 07:48:57;;;;;;;24.88;22.58;;;;;;;13.88;90.45;101411.81;5008204;28;20113;-62
2023/05/15 07:51:23;;;;;;;24.85;22.75;;;;;;;13.83;91.84;101411.69;5009256;28;20149;-61
2023/05/15 07:53:48;;;;;;;23.60;21.60;;;;;;;13.81;91.48;101405.59;5012303;28;20040;-62
2023/05/15 07:56:13;;;;;;;23.10;21.20;;;;;;;13.72;90.22;101403.16;5008980;28;20107;-63
2023/05/15 07:58:39;;;;;;;22.23;20.23;;;;;;;13.80;91.62;101399.22;4994014;28;20046;-63
2023/05/15 08:01:04;;;;;;;21.48;19.63;;;;;;;13.90;91.44;101402.22;4989989;28;20594;-63
2023/05/15 08:03:30;;;;;;;21.52;19.63;;;;;;;13.93;90.66;101396.22;4990721;28;20034;-63
2023/05/15 08:05:55;;;;;;;21.08;19.10;;;;;;;13.95;90.67;101393.22;5008676;28;20026;-64
2023/05/15 08:08:20;;;;;;;22.27;20.35;;;;;;;13.89;89.31;101400.56;5005530;28;20669;-62
2023/05/15 08:10:45;;;;;;;22.10;20.25;;;;;;;13.93;92.09;101400.88;5002744;28;20041;-63
2023/05/15 08:13:11;;;;;;;21.52;19.70;;;;;;;14.02;90.65;101388.41;4998334;28;20023;-63
2023/05/15 08:15:36;;;;;;;20.83;19.02;;;;;;;14.00;90.52;101398.88;5001067;28;20036;-61
2023/05/15 08:18:07;;;;;;;21.52;19.52;;;;;;;14.07;90.37;101390.47;5005333;28;20044;-63
2023/05/15 08:20:32;;;;;;;18.55;16.98;;;;;;;14.31;89.45;101394.06;5002580;28;20037;-61
2023/05/15 08:22:57;;;;;;;18.17;16.50;;;;;;;14.51;88.46;101392.59;5002908;28;20033;-62
2023/05/15 08:25:22;;;;;;;18.75;17.02;;;;;;;14.63;83.37;101388.97;5005184;28;20308;-63
2023/05/15 08:27:48;;;;;;;16.88;15.43;;;;;;;14.97;81.16;101388.00;5003661;28;20416;-63
2023/05/15 08:30:13;;;;;;;18.55;16.85;;;;;;;15.21;80.95;101394.28;4998261;28;20034;-62
2023/05/15 08:32:38;;;;;;;16.67;15.27;;;;;;;15.26;80.83;101394.38;5007798;28;20264;-62
2023/05/15 08:35:04;;;;;;;17.85;16.25;;;;;;;15.33;80.45;101385.91;4994570;28;20372;-62
2023/05/15 08:37:29;;;;;;;16.90;15.32;;;;;;;15.36;76.99;101390.09;5000895;28;20131;-62
2023/05/15 08:39:55;;;;;;;16.88;15.38;;;;;;;15.39;79.01;101398.75;5004320;28;20364;-63
2023/05/15 08:42:27;;;;;;;17.07;15.57;;;;;;;15.32;79.37;101401.69;5008824;28;20052;-63
2023/05/15 08:44:54;;;;;;;17.90;16.33;;;;;;;15.37;81.09;101398.16;5016725;28;20327;-63
2023/05/15 08:47:19;;;;;;;18.05;16.55;;;;;;;15.54;83.03;101407.31;5003882;28;20495;-63
2023/05/15 08:50:04;;;;;;;19.00;17.30;;;;;;;15.69;84.52;101392.94;4999098;28;20046;-64
2023/05/15 08:52:31;;;;;;;18.33;16.70;;;;;;;15.84;80.54;101395.13;5006899;28;20108;-63
2023/05/15 08:54:58;;;;;;;18.95;17.35;;;;;;;15.91;79.76;101401.31;5002480;28;20038;-64
2023/05/15 08:57:24;;;;;;;18.30;16.67;;;;;;;16.00;80.29;101397.03;4999850;28;20033;-62
2023/05/15 08:59:50;;;;;;;18.77;16.90;;;;;;;16.07;79.44;101392.16;5004733;28;20176;-64
2023/05/15 09:02:16;;;;;;;19.92;18.30;;;;;;;16.08;81.05;101390.22;4999015;28;20196;-62
2023/05/15 09:04:41;;;;;;;20.77;19.00;;;;;;;16.24;79.29;101385.75;5003101;28;20045;-63
2023/05/15 09:07:08;;;;;;;19.17;17.38;;;;;;;16.34;79.70;101389.50;5001099;28;20034;-64
2023/05/15 09:09:34;;;;;;;21.08;19.17;;;;;;;16.43;78.73;101387.13;5007106;28;20037;-64
2023/05/15 09:12:02;;;;;;;18.58;16.95;;;;;;;16.61;78.53;101394.28;5000005;28;20038;-63
2023/05/15 09:14:28;;;;;;;19.17;17.58;;;;;;;16.69;78.32;101387.47;4993714;28;20392;-64
2023/05/15 09:16:54;;;;;;;18.05;16.40;;;;;;;16.82;77.69;101392.63;5005296;28;20034;-63
2023/05/15 09:19:21;;;;;;;18.02;16.45;;;;;;;17.16;77.29;101387.75;5006088;28;20037;-64
2023/05/15 09:21:46;;;;;;;18.58;16.98;;;;;;;17.46;74.78;101387.22;5000158;28;20038;-64
2023/05/15 09:24:23;;;;;;;17.77;16.23;;;;;;;17.91;76.65;101388.75;5002725;28;20030;-64
2023/05/15 09:27:05;;;;;;;17.60;16.10;;;;;;;18.13;72.05;101394.16;4996327;28;20164;-64
2023/05/15 09:29:32;;;;;;;17.63;15.93;;;;;;;18.06;70.03;101388.03;5002659;28;20033;-64
2023/05/15 09:32:07;;;;;;;16.55;14.95;;;;;;;18.05;71.54;101384.41;5005345;28;20041;-64
2023/05/15 09:34:34;;;;;;;16.88;15.20;;;;;;;17.82;70.36;101387.56;5002193;28;20038;-64
2023/05/15 09:37:01;;;;;;;17.40;15.80;;;;;;;17.71;74.01;101388.56;4995072;28;20034;-64
2023/05/15 09:39:27;;;;;;;16.88;15.30;;;;;;;17.69;70.88;101382.41;4997427;28;20053;-64
2023/05/15 09:41:55;;;;;;;16.00;14.57;;;;;;;17.61;71.44;101395.69;4995641;28;20105;-64
2023/05/15 09:44:26;;;;;;;17.00;15.50;;;;;;;17.27;72.22;101397.03;5006267;28;20041;-61
2023/05/15 09:46:51;;;;;;;17.50;15.80;;;;;;;16.88;74.16;101394.41;5000867;28;20057;-63
2023/05/15 09:49:18;;;;;;;17.27;15.77;;;;;;;16.66;76.72;101393.50;4996989;28;20121;-64
2023/05/15 09:51:45;;;;;;;16.95;15.35;;;;;;;16.56;78.11;101402.53;5012586;28;20120;-63
2023/05/15 09:54:15;;;;;;;17.00;15.50;;;;;;;16.48;78.74;101397.47;4997076;28;20038;-65
2023/05/15 09:56:46;;;;;;;17.40;15.80;;;;;;;16.36;78.63;101397.56;5004055;28;20037;-65
2023/05/15 09:59:14;;;;;;;17.90;16.35;;;;;;;16.21;78.37;101389.03;5005155;28;20072;-65
2023/05/15 10:01:44;;;;;;;17.05;15.38;;;;;;;16.12;80.87;101404.41;5005361;28;20386;-64
2023/05/15 10:04:11;;;;;;;17.20;15.60;;;;;;;16.03;81.97;101410.38;5007289;28;20033;-64
2023/05/15 10:06:38;;;;;;;18.48;16.88;;;;;;;15.87;81.86;101416.78;5013853;28;20518;-64
2023/05/15 10:09:05;;;;;;;18.98;17.27;;;;;;;15.89;85.35;101416.53;5027248;28;20128;-64
2023/05/15 10:11:33;;;;;;;18.92;17.33;;;;;;;15.89;84.75;101413.75;5025804;28;20372;-62
2023/05/15 10:13:58;;;;;;;20.42;18.73;;;;;;;16.05;82.92;101410.13;5016773;28;20026;-65
2023/05/15 10:16:24;;;;;;;19.40;17.80;;;;;;;16.17;82.19;101404.47;5006704;28;20037;-65
2023/05/15 10:18:51;;;;;;;18.77;17.15;;;;;;;16.17;82.77;101415.56;5007189;28;20036;-64
2023/05/15 10:21:19;;;;;;;19.92;18.23;;;;;;;16.17;84.61;101410.88;5007445;28;20029;-65
2023/05/15 10:23:46;;;;;;;18.98;17.33;;;;;;;16.15;84.28;101407.50;5006366;28;20515;-65
2023/05/15 10:26:20;;;;;;;19.57;17.73;;;;;;;16.18;84.45;101418.09;5006778;28;20544;-65
2023/05/15 10:28:47;;;;;;;19.30;17.55;;;;;;;16.02;83.98;101418.97;5005238;28;20025;-64
2023/05/15 10:31:12;;;;;;;19.95;18.20;;;;;;;15.80;84.76;101414.16;5003723;28;20096;-65
2023/05/15 10:33:39;;;;;;;20.88;19.17;;;;;;;15.73;85.86;101418.19;4999165;28;20516;-64
2023/05/15 10:36:06;;;;;;;21.27;19.40;;;;;;;15.71;86.51;101420.38;5000704;28;20061;-65
2023/05/15 10:38:31;;;;;;;20.50;18.48;;;;;;;15.67;86.77;101414.50;5007091;28;20057;-63
2023/05/15 10:40:59;;;;;;;20.77;18.90;;;;;;;15.56;85.28;101416.22;5006023;28;20034;-65
2023/05/15 10:43:25;;;;;;;20.42;18.58;;;;;;;15.49;86.61;101412.78;5006097;28;20026;-64
2023/05/15 10:45:51;;;;;;;21.08;19.25;;;;;;;15.51;87.78;101410.59;5004916;28;20030;-63
2023/05/15 10:48:17;;;;;;;21.17;19.25;;;;;;;15.64;89.58;101405.84;5005054;28;20026;-64
2023/05/15 10:50:43;;;;;;;20.67;18.85;;;;;;;15.63;85.81;101407.78;5020579;28;20484;-62
2023/05/15 10:53:09;;;;;;;20.25;18.35;;;;;;;15.61;86.73;101407.16;5026023;28;20044;-62
2023/05/15 10:55:35;;;;;;;20.38;18.58;;;;;;;15.54;86.73;101406.47;5006269;28;20038;-64
2023/05/15 10:58:07;;;;;;;21.05;19.15;;;;;;;15.49;86.18;101401.69;5005968;28;20025;-62
2023/05/15 11:00:32;;;;;;;20.33;18.52;;;;;;;15.48;87.14;101407.50;5006468;28;20049;-64
2023/05/15 11:02:59;;;;;;;20.30;18.50;;;;;;;15.41;88.16;101406.78;5026176;28;20099;-65